Kezdőlap
METAR-TAF:

METAR-TAF

Repülőterek :

Cerklje ob Krki, Szlovénia

földrajzi szélesség: 45-53-59N, földrajzi hosszúság: 15-30-55E, magasság: 157 m

Jelenlegi meteorológiai megfigyelések

A jelentés 28 perccel ezelõtt készült, 21:00 UTC
Szélcsend
Hőmérséklet 20°C
Páratartalom 78%
Légköri nyomás 1019 hPa
Látótávolság 10 km, vagy több

METAR: LJCE 272100Z AUTO 00000KT 9999 NCD 20/16 Q1019

Idő: 23:28 (21:28 UTC)


TAF: hiányzik

Meteorológiai megfigyelések és előrejelzések több, mint 4000 repülőtéren (METAR és TAF jelentéseket).

A térképen piros és sárga pontok jelzik az elérhető meteorológiai állomásokat.

Mozgassa az egeret a pont fölött, hogy megjelenjen az állomás neve.

Azután kattintson az időjárási megfigyelések és előrejelzések megtekintéséhez.

A térkép megváltoztatása: kattintson a fekete keresztel jelölt zöld gombra ráközelítéshez, a vonallal jelölt zöld gombra távolításhoz, vagy a zöld nyilakra a szomszédos térképek eléréséhez.


METAR-TAF: